Terminal Aerodrome Forecast
Issued by NWS

Home | Current Version | Previous Version | Text Only | Print | Product List | Glossary On
Versions: 1 2 3 4 5 6 7 8 9 10 11 12 13 14 15 16 17 18 19
000
FTUS42 KTBW 051500 AAB
TAFPGD
TAF AMD
KPGD 051506Z 0515/0612 19012KT P6SM BKN025
     FM051700 20012KT P6SM BKN035
     FM060000 25006KT P6SM SCT250
     FM060900 00000KT 4SM BR SCT005=

USA.gov is the U.S. government's official web portal to all federal, state and local government web resources and services.